Time;durP1;ratioP1;P1;durP2;ratioP2;P2;SDS_P1;SDS_P2;PMS_P1;PMS_P2;Temp;Humidity;BMP_temperature;BMP_pressure;BME280_temperature;BME280_humidity;BME280_pressure;Samples;Min_cycle;Max_cycle;Signal;HPM_P1;HPM_P2
2023/05/25 00:01:18;;;;;;;10.13;5.25;;;;;;;;;;5095654;28;20028;-69
2023/05/25 00:03:44;;;;;;;10.85;5.45;;;;;;;;;;5094115;28;20044;-69
2023/05/25 00:06:10;;;;;;;13.20;5.60;;;;;;;;;;5094194;28;20044;-69
2023/05/25 00:08:39;;;;;;;13.63;5.53;;;11.50;99.90;;;;;;5094033;28;20504;-69
2023/05/25 00:11:05;;;;;;;13.52;4.82;;;;;;;;;;5094068;28;20063;-69
2023/05/25 00:13:31;;;;;;;15.30;5.93;;;;;;;;;;5094105;28;20048;-69
2023/05/25 00:15:57;;;;;;;13.18;5.18;;;;;;;;;;5091480;28;20057;-69
2023/05/25 00:18:23;;;;;;;14.20;5.32;;;;;;;;;;5094054;28;20032;-69
2023/05/25 00:20:52;;;;;;;16.08;5.85;;;;;;;;;;5093994;28;20032;-69
2023/05/25 00:23:19;;;;;;;19.23;6.05;;;;;;;;;;5094155;28;20361;-69
2023/05/25 00:25:45;;;;;;;13.48;5.35;;;;;;;;;;5077068;28;20044;-69
2023/05/25 00:28:11;;;;;;;16.13;6.15;;;;;;;;;;5094142;28;20047;-69
2023/05/25 00:30:37;;;;;;;13.15;5.57;;;;;;;;;;5093759;28;20185;-69
2023/05/25 00:33:04;;;;;;;12.02;5.32;;;;;;;;;;5093915;28;20038;-69
2023/05/25 00:35:30;;;;;;;14.32;6.03;;;;;;;;;;5093618;28;20047;-69
2023/05/25 00:37:56;;;;;;;17.40;6.25;;;;;;;;;;5092883;28;20442;-69
2023/05/25 00:40:22;;;;;;;13.35;5.78;;;;;;;;;;5093540;28;20168;-69
2023/05/25 00:42:48;;;;;;;10.55;5.18;;;;;;;;;;5095002;28;20047;-69
2023/05/25 00:45:14;;;;;;;16.10;5.65;;;;;;;;;;5093338;28;20036;-69
2023/05/25 00:47:41;;;;;;;16.88;6.28;;;;;;;;;;5093774;28;20044;-69
2023/05/25 00:50:08;;;;;;;17.02;6.30;;;;;;;;;;5093151;28;20032;-69
2023/05/25 00:52:34;;;;;;;17.52;5.65;;;;;;;;;;5093671;28;20036;-69
2023/05/25 00:55:19;;;;;;;13.88;5.50;;;;;;;;;;5093442;28;20082;-69
2023/05/25 00:57:47;;;;;;;14.65;6.25;;;;;;;;;;5089930;28;20052;-69
2023/05/25 01:00:14;;;;;;;13.43;5.50;;;;;;;;;;5110222;28;20048;-69
2023/05/25 01:02:42;;;;;;;19.33;5.80;;;11.20;99.90;;;;;;5076310;28;20082;-69
2023/05/25 01:05:11;;;;;;;16.83;6.07;;;11.20;99.90;;;;;;5075771;28;20123;-69
2023/05/25 01:07:38;;;;;;;17.85;6.10;;;11.10;99.90;;;;;;5093379;28;20079;-69
2023/05/25 01:10:09;;;;;;;20.23;5.78;;;11.10;99.90;;;;;;5109865;27;20052;-69
2023/05/25 01:12:37;;;;;;;12.15;5.75;;;;;;;;;;5092952;28;20048;-69
2023/05/25 01:15:04;;;;;;;13.18;5.70;;;;;;;;;;5093475;28;20101;-69
2023/05/25 01:17:31;;;;;;;13.95;5.15;;;;;;;;;;5093000;28;20381;-69
2023/05/25 01:19:57;;;;;;;17.23;6.20;;;;;;;;;;5076124;28;20039;-69
2023/05/25 01:22:32;;;;;;;10.23;5.20;;;;;;;;;;5092735;28;20040;-69
2023/05/25 01:25:06;;;;;;;17.27;5.80;;;11.20;99.90;;;;;;5092409;28;20123;-69
2023/05/25 01:27:38;;;;;;;15.82;5.50;;;11.00;99.90;;;;;;5092822;28;20507;-69
2023/05/25 01:30:09;;;;;;;12.82;5.28;;;10.90;99.90;;;;;;5092433;28;20068;-70
2023/05/25 01:32:36;;;;;;;12.20;5.50;;;10.90;99.90;;;;;;5092642;28;20047;-69
2023/05/25 01:35:03;;;;;;;17.58;5.68;;;11.00;99.90;;;;;;5092778;28;20079;-69
2023/05/25 01:37:30;;;;;;;17.33;5.25;;;;;;;;;;5092408;28;20040;-69
2023/05/25 01:39:57;;;;;;;15.23;5.47;;;;;;;;;;5109553;28;20392;-69
2023/05/25 01:42:23;;;;;;;16.20;6.22;;;;;;;;;;5092660;28;20047;-69
2023/05/25 01:44:49;;;;;;;13.10;5.43;;;;;;;;;;5092230;28;20125;-69
2023/05/25 01:47:27;;;;;;;16.50;5.88;;;10.90;99.90;;;;;;5092161;28;20051;-69
2023/05/25 01:50:05;;;;;;;18.23;6.10;;;;;;;;;;5091078;28;20036;-70
2023/05/25 01:52:33;;;;;;;13.88;5.80;;;;;;;;;;5091174;28;20036;-69
2023/05/25 01:55:05;;;;;;;14.63;6.30;;;;;;;;;;5075429;28;20136;-69
2023/05/25 01:57:34;;;;;;;15.73;5.93;;;;;;;;;;5092201;28;20093;-69
2023/05/25 02:00:02;;;;;;;13.43;6.07;;;;;;;;;;5109043;28;20447;-69
2023/05/25 02:02:29;;;;;;;17.05;7.15;;;10.80;99.90;;;;;;5092113;28;20059;-69
2023/05/25 02:04:55;;;;;;;13.13;6.53;;;;;;;;;;5089398;28;20407;-69
2023/05/25 02:07:22;;;;;;;16.65;6.63;;;10.80;99.90;;;;;;5109083;28;20040;-69
2023/05/25 02:09:48;;;;;;;16.75;6.95;;;;;;;;;;5125862;27;20076;-69
2023/05/25 02:12:14;;;;;;;15.13;6.07;;;;;;;;;;5091885;28;20047;-69
2023/05/25 02:14:40;;;;;;;19.30;7.20;;;;;;;;;;5091640;28;20466;-69
2023/05/25 02:17:06;;;;;;;14.27;6.35;;;;;;;;;;5091692;28;20032;-69
2023/05/25 02:19:32;;;;;;;16.52;7.35;;;;;;;;;;5091713;28;20434;-69
2023/05/25 02:21:59;;;;;;;17.05;7.40;;;;;;;;;;5091528;28;20080;-69
2023/05/25 02:24:25;;;;;;;15.07;6.35;;;;;;;;;;5074719;28;20083;-69
2023/05/25 02:26:51;;;;;;;20.50;7.22;;;;;;;;;;5091472;28;20035;-69
2023/05/25 02:29:17;;;;;;;18.27;7.22;;;;;;;;;;5091838;28;20071;-69
2023/05/25 02:31:43;;;;;;;13.15;7.57;;;;;;;;;;5108687;28;20059;-69
2023/05/25 02:34:10;;;;;;;18.58;7.00;;;;;;;;;;5091518;28;20039;-69
2023/05/25 02:36:38;;;;;;;17.33;7.57;;;;;;;;;;5091694;28;20048;-69
2023/05/25 02:39:04;;;;;;;14.40;7.20;;;;;;;;;;5072711;28;20028;-69
2023/05/25 02:41:30;;;;;;;22.92;8.48;;;;;;;;;;5108374;28;20040;-70
2023/05/25 02:43:57;;;;;;;18.30;7.68;;;;;;;;;;5090392;28;20043;-69
2023/05/25 02:46:23;;;;;;;17.23;8.35;;;;;;;;;;5091297;28;20036;-69
2023/05/25 02:48:50;;;;;;;16.08;8.10;;;;;;;;;;5091366;28;20028;-69
2023/05/25 02:51:16;;;;;;;15.68;8.43;;;;;;;;;;5091204;28;20480;-69
2023/05/25 02:53:42;;;;;;;17.95;8.02;;;;;;;;;;5090925;28;20372;-69
2023/05/25 02:56:09;;;;;;;23.10;8.80;;;;;;;;;;5108293;28;20163;-69
2023/05/25 02:58:36;;;;;;;15.85;8.43;;;;;;;;;;5091205;28;20044;-69
2023/05/25 03:01:04;;;;;;;27.67;10.52;;;;;;;;;;5073647;28;20035;-69
2023/05/25 03:03:30;;;;;;;20.08;8.75;;;;;;;;;;5091203;28;20133;-68
2023/05/25 03:05:56;;;;;;;23.83;9.63;;;;;;;;;;5107839;28;20115;-69
2023/05/25 03:08:22;;;;;;;18.50;9.48;;;;;;;;;;5090983;28;20039;-69
2023/05/25 03:10:48;;;;;;;19.67;8.93;;;;;;;;;;5074141;28;20046;-69
2023/05/25 03:13:15;;;;;;;19.08;9.55;;;;;;;;;;5090645;28;20400;-69
2023/05/25 03:15:41;;;;;;;20.55;9.43;;;;;;;;;;5091092;28;20035;-69
2023/05/25 03:18:07;;;;;;;25.40;11.05;;;;;;;;;;5090823;28;20040;-69
2023/05/25 03:20:33;;;;;;;18.00;9.20;;;;;;;;;;5090808;28;20161;-70
2023/05/25 03:22:59;;;;;;;22.58;9.57;;;;;;;;;;5073525;28;20036;-70
2023/05/25 03:25:25;;;;;;;20.65;8.77;;;;;;;;;;5090798;28;20071;-70
2023/05/25 03:27:52;;;;;;;19.63;9.20;;;;;;;;;;5090733;28;20032;-70
2023/05/25 03:30:19;;;;;;;20.80;9.30;;;;;;;;;;5090944;28;20388;-70
2023/05/25 03:32:45;;;;;;;19.42;9.77;;;;;;;;;;5107638;28;20035;-70
2023/05/25 03:35:11;;;;;;;15.90;9.27;;;;;;;;;;5090728;28;20043;-70
2023/05/25 03:37:37;;;;;;;18.88;9.70;;;;;;;;;;5090375;28;20050;-70
2023/05/25 03:40:03;;;;;;;17.90;9.48;;;;;;;;;;5090859;28;20392;-70
2023/05/25 03:42:29;;;;;;;20.25;9.50;;;;;;;;;;5090397;28;20036;-70
2023/05/25 03:44:55;;;;;;;18.80;9.00;;;;;;;;;;5090632;28;20051;-70
2023/05/25 03:47:21;;;;;;;19.48;9.40;;;;;;;;;;5090631;28;20036;-70
2023/05/25 03:49:47;;;;;;;23.45;8.73;;;;;;;;;;5091613;28;20034;-70
2023/05/25 03:52:14;;;;;;;24.75;9.07;;;;;;;;;;5090127;28;20032;-70
2023/05/25 03:54:40;;;;;;;21.42;8.65;;;;;;;;;;5107680;28;20050;-70
2023/05/25 03:57:06;;;;;;;18.95;9.30;;;;;;;;;;5090692;28;20036;-71
2023/05/25 03:59:32;;;;;;;15.55;8.10;;;;;;;;;;5090440;28;20040;-71
2023/05/25 04:01:58;;;;;;;18.50;8.65;;;;;;;;;;5090497;28;20036;-71
2023/05/25 04:04:24;;;;;;;19.48;8.73;;;;;;;;;;5107428;28;20037;-70
2023/05/25 04:06:50;;;;;;;19.77;8.05;;;;;;;;;;5090683;28;20358;-71
2023/05/25 04:09:17;;;;;;;19.52;8.65;;;;;;;;;;5091249;28;20032;-71
2023/05/25 04:11:46;;;;;;;20.42;8.77;;;;;;;;;;5092713;28;20067;-70
2023/05/25 04:14:12;;;;;;;17.08;8.40;;;;;;;;;;5094209;28;20387;-70
2023/05/25 04:16:41;;;;;;;17.83;8.20;;;;;;;;;;5077117;28;20502;-70
2023/05/25 04:19:07;;;;;;;23.92;8.48;;;;;;;;;;5077468;28;20051;-70
2023/05/25 04:21:33;;;;;;;16.70;7.88;;;;;;;;;;5093950;28;20032;-70
2023/05/25 04:24:00;;;;;;;16.17;8.27;;;;;;;;;;5110672;28;20581;-70
2023/05/25 04:26:26;;;;;;;17.05;7.80;;;;;;;;;;5093885;28;20117;-70
2023/05/25 04:28:55;;;;;;;18.33;8.52;;;;;;;;;;5110794;27;20484;-70
2023/05/25 04:31:21;;;;;;;13.00;7.20;;;;;;;;;;5094119;28;20224;-71
2023/05/25 04:33:48;;;;;;;13.88;8.38;;;;;;;;;;5110847;27;20428;-70
2023/05/25 04:36:14;;;;;;;17.17;8.15;;;;;;;;;;5073538;28;20046;-70
2023/05/25 04:38:41;;;;;;;20.90;7.95;;;;;;;;;;5093284;28;20044;-70
2023/05/25 04:41:07;;;;;;;19.42;8.13;;;;;;;;;;5093542;28;20050;-70
2023/05/25 04:43:33;;;;;;;15.00;8.32;;;;;;;;;;5093236;28;20488;-70
2023/05/25 04:46:00;;;;;;;22.95;8.95;;;;;;;;;;5093178;28;20085;-70
2023/05/25 04:48:32;;;;;;;20.02;7.97;;;;;;;;;;5093287;28;20063;-70
2023/05/25 04:51:01;;;;;;;16.17;7.28;;;;;;;;;;5110843;28;20457;-70
2023/05/25 04:53:28;;;;;;;17.42;8.02;;;10.80;99.90;;;;;;5093551;28;20032;-70
2023/05/25 04:55:54;;;;;;;22.70;8.70;;;;;;;;;;5076606;28;20573;-70
2023/05/25 04:58:21;;;;;;;18.60;8.10;;;10.80;99.90;;;;;;5093356;28;20066;-70
2023/05/25 05:00:47;;;;;;;24.20;8.75;;;;;;;;;;5127425;27;20050;-70
2023/05/25 05:03:13;;;;;;;15.73;8.57;;;;;;;;;;5109972;28;20047;-70
2023/05/25 05:05:39;;;;;;;24.08;8.13;;;;;;;;;;5092871;28;20557;-70
2023/05/25 05:08:06;;;;;;;21.27;8.65;;;;;;;;;;5093166;28;20044;-69
2023/05/25 05:10:32;;;;;;;21.48;8.63;;;;;;;;;;5090522;28;20076;-70
2023/05/25 05:12:58;;;;;;;20.15;8.75;;;;;;;;;;5110424;28;20085;-70
2023/05/25 05:15:25;;;;;;;24.38;9.70;;;;;;;;;;5076191;28;20043;-70
2023/05/25 05:17:51;;;;;;;17.85;9.73;;;;;;;;;;5093026;28;20089;-71
2023/05/25 05:20:17;;;;;;;22.70;9.57;;;;;;;;;;5092736;28;20044;-69
2023/05/25 05:22:44;;;;;;;26.48;9.45;;;;;;;;;;5092270;28;20040;-70
2023/05/25 05:25:10;;;;;;;22.27;9.45;;;;;;;;;;5092425;28;20056;-70
2023/05/25 05:27:36;;;;;;;17.77;9.45;;;;;;;;;;5092273;28;20036;-70
2023/05/25 05:30:03;;;;;;;20.55;10.25;;;;;;;;;;5093318;28;20068;-72
2023/05/25 05:32:29;;;;;;;23.00;9.57;;;;;;;;;;5075523;28;20039;-72
2023/05/25 05:34:55;;;;;;;25.02;11.20;;;;;;;;;;5109500;28;20042;-70
2023/05/25 05:37:21;;;;;;;28.42;11.35;;;;;;;;;;5092861;28;20122;-70
2023/05/25 05:39:47;;;;;;;29.58;11.20;;;;;;;;;;5092310;28;20123;-70
2023/05/25 05:42:13;;;;;;;28.05;10.68;;;;;;;;;;5092367;28;20063;-70
2023/05/25 05:44:39;;;;;;;19.40;10.10;;;;;;;;;;5091948;28;20036;-70
2023/05/25 05:47:06;;;;;;;22.40;9.88;;;;;;;;;;5092591;28;20407;-70
2023/05/25 05:49:33;;;;;;;23.08;10.38;;;;;;;;;;5075254;28;20036;-70
2023/05/25 05:51:59;;;;;;;25.60;11.27;;;;;;;;;;5092294;28;20086;-70
2023/05/25 05:54:28;;;;;;;29.90;11.43;;;;;;;;;;5091819;28;20047;-70
2023/05/25 05:56:54;;;;;;;22.58;10.88;;;;;;;;;;5092060;28;20036;-70
2023/05/25 05:59:21;;;;;;;21.00;10.93;;;;;;;;;;5091715;28;20048;-70
2023/05/25 06:01:47;;;;;;;23.55;10.88;;;;;;;;;;5092068;28;20476;-70
2023/05/25 06:04:14;;;;;;;24.45;10.00;;;;;;;;;;5091712;28;20035;-69
2023/05/25 06:06:41;;;;;;;26.38;10.30;;;;;;;;;;5092144;28;20039;-70
2023/05/25 06:09:08;;;;;;;20.20;9.35;;;;;;;;;;5091725;28;20071;-70
2023/05/25 06:11:36;;;;;;;20.52;9.60;;;;;;;;;;5091716;28;20059;-70
2023/05/25 06:14:02;;;;;;;30.83;7.72;;;;;;;;;;5091533;28;20032;-75
2023/05/25 06:16:28;;;;;;;19.60;7.38;;;;;;;;;;5090875;28;20357;-77
2023/05/25 06:18:55;;;;;;;20.20;7.07;;;;;;;;;;5109081;28;20038;-71
2023/05/25 06:21:21;;;;;;;21.40;7.30;;;;;;;;;;5091487;28;20032;-70
2023/05/25 06:23:47;;;;;;;18.75;6.47;;;;;;;;;;5091650;28;20039;-70
2023/05/25 06:26:13;;;;;;;15.10;6.13;;;;;;;;;;5091393;28;20471;-70
2023/05/25 06:28:40;;;;;;;26.88;7.22;;;;;;;;;;5091723;28;20028;-70
2023/05/25 06:31:06;;;;;;;16.48;5.95;;;;;;;;;;5090519;28;20369;-71
2023/05/25 06:33:32;;;;;;;16.85;6.28;;;;;;;;;;5090970;28;20046;-71
2023/05/25 06:35:59;;;;;;;17.35;4.95;;;;;;;;;;5073352;28;20035;-71
2023/05/25 06:38:26;;;;;;;16.00;5.30;;;12.70;99.90;;;;;;5091593;28;20047;-71
2023/05/25 06:40:52;;;;;;;11.93;5.32;;;;;;;;;;5091367;28;20072;-71
2023/05/25 06:43:19;;;;;;;14.23;5.50;;;;;;;;;;5091111;28;20523;-71
2023/05/25 06:45:45;;;;;;;17.38;5.18;;;;;;;;;;5090508;28;20044;-72
2023/05/25 06:48:11;;;;;;;16.83;5.38;;;;;;;;;;5091047;28;20043;-71
2023/05/25 06:50:38;;;;;;;14.55;4.90;;;;;;;;;;5091081;28;20463;-71
2023/05/25 06:53:05;;;;;;;15.10;5.03;;;;;;;;;;5091311;28;20032;-71
2023/05/25 06:55:30;;;;;;;21.60;5.00;;;11.70;99.90;;;;;;5091025;28;20456;-71
2023/05/25 06:57:57;;;;;;;14.70;4.88;;;;;;;;;;5090971;28;20177;-71
2023/05/25 07:00:24;;;;;;;22.10;4.88;;;;;;;;;;5090839;28;20162;-71
2023/05/25 07:02:50;;;;;;;16.35;4.82;;;;;;;;;;5074374;28;20047;-70
2023/05/25 07:05:16;;;;;;;15.20;4.30;;;;;;;;;;5090545;28;20044;-71
2023/05/25 07:07:42;;;;;;;22.23;5.50;;;;;;;;;;5074252;28;20042;-70
2023/05/25 07:10:08;;;;;;;16.27;4.60;;;;;;;;;;5090502;28;20176;-70
2023/05/25 07:12:35;;;;;;;11.70;4.07;;;;;;;;;;5107405;28;20039;-70
2023/05/25 07:15:01;;;;;;;18.60;5.18;;;;;;;;;;5108144;28;20043;-70
2023/05/25 07:17:27;;;;;;;17.98;4.65;;;;;;;;;;5074478;28;20036;-71
2023/05/25 07:19:53;;;;;;;15.98;4.25;;;;;;;;;;5091232;28;20075;-71
2023/05/25 07:22:22;;;;;;;18.40;4.05;;;;;;;;;;5091110;28;20031;-71
2023/05/25 07:24:48;;;;;;;20.23;5.07;;;;;;;;;;5090760;28;20052;-71
2023/05/25 07:27:15;;;;;;;16.52;4.30;;;;;;;;;;5074133;28;20391;-71
2023/05/25 07:29:41;;;;;;;23.52;5.57;;;;;;;;;;5074135;28;20058;-71
2023/05/25 07:32:07;;;;;;;17.67;5.22;;;;;;;;;;5091013;28;20036;-71
2023/05/25 07:34:33;;;;;;;23.92;5.07;;;13.30;99.90;;;;;;5090813;28;20047;-70
2023/05/25 07:36:59;;;;;;;27.10;5.28;;;;;;;;;;5073413;28;20165;-70
2023/05/25 07:39:26;;;;;;;28.67;5.82;;;;;;;;;;5107924;28;20043;-70
2023/05/25 07:41:52;;;;;;;24.05;5.53;;;;;;;;;;5091964;28;20036;-70
2023/05/25 07:44:18;;;;;;;26.58;4.35;;;;;;;;;;5090506;28;20031;-70
2023/05/25 07:46:44;;;;;;;22.13;4.72;;;;;;;;;;5076382;28;20130;-70
2023/05/25 07:49:14;;;;;;;21.50;4.68;;;;;;;;;;5092064;28;20043;-70
2023/05/25 07:51:40;;;;;;;24.15;5.35;;;;;;;;;;5094672;28;20044;-70
2023/05/25 07:54:07;;;;;;;19.00;4.95;;;;;;;;;;5077966;28;20036;-70
2023/05/25 07:56:33;;;;;;;20.25;4.38;;;;;;;;;;5094540;28;20040;-70
2023/05/25 07:58:59;;;;;;;21.98;4.82;;;;;;;;;;5094751;28;20064;-70
2023/05/25 08:01:26;;;;;;;23.27;4.57;;;;;;;;;;5095611;28;20048;-70
2023/05/25 08:03:52;;;;;;;25.70;5.13;;;;;;;;;;5094432;28;20036;-70
2023/05/25 08:06:18;;;;;;;25.55;4.95;;;;;;;;;;5093867;28;20036;-70
2023/05/25 08:08:45;;;;;;;27.63;5.18;;;;;;;;;;5077714;28;20032;-69
2023/05/25 08:11:11;;;;;;;25.88;3.97;;;;;;;;;;5110930;28;20051;-70
2023/05/25 08:13:38;;;;;;;25.45;4.68;;;13.70;99.90;;;;;;5094685;28;20056;-69
2023/05/25 08:16:04;;;;;;;26.02;5.18;;;;;;;;;;5128380;27;20059;-70
2023/05/25 08:18:30;;;;;;;20.58;4.20;;;;;;;;;;5077597;28;20047;-70
2023/05/25 08:20:56;;;;;;;27.00;4.53;;;;;;;;;;5094244;28;20056;-70
2023/05/25 08:23:23;;;;;;;26.25;6.40;;;;;;;;;;5093511;28;20039;-70
2023/05/25 08:25:50;;;;;;;24.13;4.03;;;;;;;;;;5111179;28;20071;-69
2023/05/25 08:28:16;;;;;;;23.63;5.57;;;;;;;;;;5094045;28;20036;-69
2023/05/25 08:30:44;;;;;;;25.67;4.35;;;13.90;99.90;;;;;;5094150;28;20051;-68
2023/05/25 08:33:10;;;;;;;25.77;4.25;;;;;;;;;;5092662;28;20044;-68
2023/05/25 08:35:41;;;;;;;20.98;4.72;;;;;;;;;;5077155;28;20047;-68
2023/05/25 08:38:07;;;;;;;27.52;4.20;;;;;;;;;;5093899;28;20032;-69
2023/05/25 08:40:33;;;;;;;17.40;3.75;;;;;;;;;;5093897;28;20484;-69
2023/05/25 08:43:00;;;;;;;23.10;4.70;;;;;;;;;;5093988;28;20036;-69
2023/05/25 08:45:26;;;;;;;23.13;4.75;;;;;;;;;;5093418;28;20048;-69
2023/05/25 08:47:57;;;;;;;22.83;4.35;;;13.90;99.90;;;;;;5093696;28;20431;-69
2023/05/25 08:50:25;;;;;;;19.08;4.38;;;14.10;99.90;;;;;;5093173;28;20399;-69
2023/05/25 08:52:52;;;;;;;20.88;3.75;;;;;;;;;;5093586;28;20707;-69
2023/05/25 08:55:22;;;;;;;19.77;4.30;;;14.40;99.90;;;;;;5092204;28;20040;-69
2023/05/25 08:57:55;;;;;;;24.10;4.25;;;13.90;99.90;;;;;;5092079;28;20071;-69
2023/05/25 09:00:27;;;;;;;20.02;4.18;;;14.10;99.90;;;;;;5125567;27;20093;-69
2023/05/25 09:02:53;;;;;;;31.02;4.65;;;;;;;;;;5110427;28;20126;-69
2023/05/25 09:05:20;;;;;;;28.33;4.57;;;;;;;;;;5093400;28;20040;-70
2023/05/25 09:07:46;;;;;;;29.20;5.05;;;;;;;;;;5073501;28;20032;-69
2023/05/25 09:10:13;;;;;;;22.17;4.97;;;;;;;;;;5057336;28;20492;-69
2023/05/25 09:12:42;;;;;;;21.48;4.72;;;;;;;;;;5092919;28;20109;-69
2023/05/25 09:15:11;;;;;;;25.17;4.63;;;14.70;99.90;;;;;;5075670;28;20054;-69
2023/05/25 09:17:38;;;;;;;16.88;3.83;;;;;;;;;;5092407;28;20496;-69
2023/05/25 09:20:04;;;;;;;21.60;4.32;;;13.70;99.90;;;;;;5092978;28;20048;-69
2023/05/25 09:22:30;;;;;;;25.90;4.68;;;;;;;;;;5092643;28;20127;-69
2023/05/25 09:24:56;;;;;;;21.25;5.30;;;;;;;;;;5093211;28;20044;-69
2023/05/25 09:27:22;;;;;;;22.77;4.22;;;14.40;99.90;;;;;;5093714;28;20097;-69
2023/05/25 09:29:49;;;;;;;21.17;4.55;;;14.80;99.90;;;;;;5094644;28;20404;-68
2023/05/25 09:32:19;;;;;;;17.48;4.15;;;;;;;;;;5092362;28;20044;-68
2023/05/25 09:34:45;;;;;;;21.08;3.75;;;;;;;;;;5076058;28;20502;-68
2023/05/25 09:37:13;;;;;;;20.45;4.13;;;15.20;99.90;;;;;;5110902;28;20098;-68
2023/05/25 09:39:42;;;;;;;21.05;4.47;;;15.50;99.90;;;;;;5094246;28;20055;-68
2023/05/25 09:42:09;;;;;;;19.17;4.18;;;;;;;;;;5127166;27;20096;-68
2023/05/25 09:44:35;;;;;;;22.60;4.30;;;;;;;;;;5126258;27;20036;-69
2023/05/25 09:47:02;;;;;;;18.63;4.03;;;;;;;;;;5091440;28;20048;-68
2023/05/25 09:49:28;;;;;;;19.63;3.95;;;;;;;;;;5075977;28;20043;-68
2023/05/25 09:51:55;;;;;;;22.58;5.28;;;;;;;;;;5093555;28;20048;-69
2023/05/25 09:54:25;;;;;;;20.65;4.05;;;15.00;99.90;;;;;;5093151;28;20043;-69
2023/05/25 09:56:50;;;;;;;25.38;3.88;;;15.70;99.90;;;;;;5127670;27;20484;-69
2023/05/25 09:59:16;;;;;;;17.17;4.10;;;;;;;;;;5094532;28;20080;-69
2023/05/25 10:01:45;;;;;;;18.75;4.50;;;;;;;;;;5127248;27;20116;-70
2023/05/25 10:04:15;;;;;;;18.00;4.32;;;15.30;99.90;;;;;;5127116;27;20377;-69
2023/05/25 10:06:41;;;;;;;21.63;3.95;;;;;;;;;;5077678;28;20090;-69
2023/05/25 10:09:08;;;;;;;20.63;5.03;;;;;;;;;;5072849;28;20067;-69
2023/05/25 10:11:37;;;;;;;24.45;4.50;;;15.40;99.90;;;;;;5073838;28;20056;-68
2023/05/25 10:14:06;;;;;;;19.25;4.45;;;16.10;99.90;;;;;;5075092;28;20039;-68
2023/05/25 10:16:33;;;;;;;23.90;5.35;;;15.70;99.90;;;;;;5089271;28;20488;-68
2023/05/25 10:19:03;;;;;;;26.92;4.78;;;;;;;;;;5074675;28;20171;-68
2023/05/25 10:21:30;;;;;;;23.40;4.72;;;15.30;99.90;;;;;;5091524;28;20097;-68
2023/05/25 10:24:07;;;;;;;22.13;4.10;;;;;;;;;;5091559;28;20043;-69
2023/05/25 10:26:39;;;;;;;18.00;4.75;;;15.70;99.90;;;;;;5108404;28;20044;-69
2023/05/25 10:29:06;;;;;;;25.55;4.70;;;15.80;99.90;;;;;;5090462;28;20040;-68
2023/05/25 10:31:36;;;;;;;20.05;4.43;;;;;;;;;;5090994;28;20036;-68
2023/05/25 10:34:02;;;;;;;24.60;4.25;;;16.10;99.90;;;;;;5091543;28;20439;-68
2023/05/25 10:36:30;;;;;;;21.35;3.88;;;;;;;;;;5092284;28;20076;-74
2023/05/25 10:38:57;;;;;;;26.50;5.22;;;16.20;99.90;;;;;;5092321;28;20108;-68
2023/05/25 10:41:23;;;;;;;25.15;4.30;;;;;;;;;;5092313;28;20586;-68
2023/05/25 10:43:49;;;;;;;28.65;5.45;;;;;;;;;;5125841;27;20032;-68
2023/05/25 10:46:15;;;;;;;23.88;4.75;;;16.20;99.90;;;;;;5091104;28;20040;-68
2023/05/25 10:48:51;;;;;;;31.00;4.93;;;16.00;99.90;;;;;;5074424;28;20524;-69
2023/05/25 10:51:20;;;;;;;18.77;4.47;;;16.10;99.90;;;;;;5074777;28;20484;-69
2023/05/25 10:53:58;;;;;;;23.65;4.82;;;16.10;99.90;;;;;;5074840;28;20035;-69
2023/05/25 10:56:25;;;;;;;25.85;5.28;;;;;;;;;;5091282;28;20063;-69
2023/05/25 10:58:52;;;;;;;20.50;5.07;;;16.50;99.90;;;;;;5091048;28;20496;-69
2023/05/25 11:01:18;;;;;;;22.17;4.82;;;;;;;;;;5090660;28;20096;-69
2023/05/25 11:03:44;;;;;;;18.15;4.13;;;;;;;;;;5071638;28;20121;-69
2023/05/25 11:06:11;;;;;;;20.48;4.50;;;15.60;99.90;;;;;;5090882;28;20040;-69
2023/05/25 11:08:56;;;;;;;20.75;4.93;;;17.10;99.90;;;;;;5091149;28;20040;-69
2023/05/25 11:11:47;;;;;;;23.58;4.63;;;16.30;99.90;;;;;;5090672;28;20044;-69
2023/05/25 11:14:28;;;;;;;29.25;5.38;;;16.10;99.90;;;;;;5074198;28;20036;-69
2023/05/25 11:17:14;;;;;;;21.35;4.93;;;15.20;99.90;;;;;;5090693;28;20075;-69
2023/05/25 11:19:49;;;;;;;22.05;4.00;;;15.80;99.90;;;;;;5074853;28;20036;-69
2023/05/25 11:22:15;;;;;;;22.77;4.65;;;;;;;;;;5083667;28;20047;-69
2023/05/25 11:24:44;;;;;;;27.58;4.55;;;15.30;99.90;;;;;;5071724;28;20541;-69
2023/05/25 11:27:11;;;;;;;25.95;5.15;;;16.50;99.90;;;;;;5085937;28;20036;-68
2023/05/25 11:29:37;;;;;;;24.13;5.40;;;16.70;99.90;;;;;;5073009;28;20040;-68
2023/05/25 11:32:03;;;;;;;25.10;4.22;;;;;;;;;;5090472;28;20051;-68
2023/05/25 11:34:33;;;;;;;23.60;4.60;;;;;;;;;;5090608;28;20032;-69
2023/05/25 11:37:02;;;;;;;29.77;4.80;;;;;;;;;;5073984;28;20485;-70
2023/05/25 11:39:29;;;;;;;25.30;4.70;;;;;;;;;;5104631;28;20043;-70
2023/05/25 11:42:00;;;;;;;22.63;4.35;;;15.50;99.90;;;;;;5090637;28;20031;-70
2023/05/25 11:44:28;;;;;;;24.60;5.20;;;;;;;;;;5090581;28;20039;-70
2023/05/25 11:47:00;;;;;;;19.55;4.47;;;16.30;99.90;;;;;;5090674;28;20483;-70
2023/05/25 11:49:26;;;;;;;22.38;3.92;;;16.30;99.90;;;;;;5090511;28;20435;-70
2023/05/25 11:51:53;;;;;;;29.67;4.63;;;16.30;99.90;;;;;;5090507;28;20040;-70
2023/05/25 11:54:23;;;;;;;21.63;3.70;;;16.30;99.90;;;;;;5090414;28;20044;-70
2023/05/25 11:56:49;;;;;;;18.05;4.93;;;;;;;;;;5090350;28;20040;-71
2023/05/25 11:59:15;;;;;;;24.17;4.88;;;;;;;;;;5090683;28;20031;-70
2023/05/25 12:01:42;;;;;;;22.90;4.15;;;;;;;;;;5073560;28;20035;-70
2023/05/25 12:04:09;;;;;;;28.85;4.60;;;15.90;99.90;;;;;;5090643;28;20441;-70
2023/05/25 12:06:37;;;;;;;22.55;4.63;;;15.10;99.90;;;;;;5073565;28;20097;-70
2023/05/25 12:09:05;;;;;;;19.85;4.30;;;;;;;;;;5090753;28;20048;-70
2023/05/25 12:11:37;;;;;;;31.27;5.13;;;;;;;;;;5088756;28;20063;-70
2023/05/25 12:14:06;;;;;;;26.92;4.93;;;16.20;99.90;;;;;;5089560;28;20115;-70
2023/05/25 12:16:39;;;;;;;31.00;5.93;;;15.80;99.90;;;;;;5090979;28;20115;-70
2023/05/25 12:19:06;;;;;;;41.25;6.13;;;16.40;99.90;;;;;;5088949;28;20541;-71
2023/05/25 12:21:33;;;;;;;29.58;4.78;;;;;;;;;;5090033;28;20087;-70
2023/05/25 12:23:59;;;;;;;25.25;4.95;;;16.40;99.90;;;;;;5090300;28;20474;-70
2023/05/25 12:26:25;;;;;;;28.35;5.93;;;;;;;;;;5090072;28;20484;-70
2023/05/25 12:29:05;;;;;;;31.40;6.60;;;16.30;99.90;;;;;;5090193;28;20044;-70
2023/05/25 12:31:33;;;;;;;25.45;4.38;;;16.60;99.90;;;;;;5088856;28;20045;-70
2023/05/25 12:34:16;;;;;;;25.58;4.88;;;16.50;99.90;;;;;;5092716;28;20511;-70
2023/05/25 12:36:50;;;;;;;29.05;5.20;;;17.30;99.90;;;;;;5094701;28;20442;-70
2023/05/25 12:39:17;;;;;;;32.65;6.45;;;;;;;;;;5093779;28;20426;-69
2023/05/25 12:41:49;;;;;;;19.08;4.65;;;17.40;99.90;;;;;;5093990;28;20047;-70
2023/05/25 12:44:34;;;;;;;25.00;5.30;;;17.50;99.90;;;;;;5093706;28;20419;-70
2023/05/25 12:47:22;;;;;;;26.02;5.10;;;17.50;99.90;;;;;;5079041;28;20156;-70
2023/05/25 12:50:13;;;;;;;23.02;5.07;;;16.50;99.90;;;;;;5093265;28;20055;-69
2023/05/25 12:52:43;;;;;;;27.02;5.10;;;16.50;99.90;;;;;;5091798;28;20073;-69
2023/05/25 12:55:20;;;;;;;23.50;4.85;;;16.60;99.90;;;;;;5094207;28;20164;-70
2023/05/25 12:57:46;;;;;;;30.15;5.45;;;17.60;99.90;;;;;;5110375;28;20044;-70
2023/05/25 13:00:12;;;;;;;20.40;4.70;;;16.40;99.90;;;;;;5093074;28;20105;-70
2023/05/25 13:02:43;;;;;;;29.50;5.68;;;16.90;99.90;;;;;;5093194;28;20032;-70
2023/05/25 13:05:28;;;;;;;30.90;4.63;;;16.50;99.90;;;;;;5093135;28;20115;-70
2023/05/25 13:07:56;;;;;;;27.83;4.90;;;17.20;99.90;;;;;;5076307;28;20032;-70
2023/05/25 13:10:23;;;;;;;26.75;5.32;;;;;;;;;;5075910;28;20097;-70
2023/05/25 13:12:50;;;;;;;21.20;4.50;;;17.00;99.90;;;;;;5093083;28;20067;-69
2023/05/25 13:15:19;;;;;;;23.10;4.53;;;17.70;99.90;;;;;;5093149;28;20109;-68
2023/05/25 13:17:45;;;;;;;25.77;5.43;;;17.90;99.90;;;;;;5092920;28;20040;-68
2023/05/25 13:20:15;;;;;;;27.08;5.32;;;17.20;99.90;;;;;;5093049;28;20407;-68
2023/05/25 13:22:43;;;;;;;33.55;5.28;;;17.10;99.90;;;;;;5092860;28;20123;-68
2023/05/25 13:25:13;;;;;;;27.15;5.22;;;17.30;99.90;;;;;;5109593;28;20048;-69
2023/05/25 13:27:43;;;;;;;23.98;4.78;;;17.00;99.90;;;;;;5075730;28;20088;-69
2023/05/25 13:30:10;;;;;;;26.90;5.00;;;;;;;;;;5092710;28;20036;-69
2023/05/25 13:32:37;;;;;;;25.75;5.00;;;;;;;;;;5075655;28;20520;-69
2023/05/25 13:35:03;;;;;;;21.83;4.53;;;17.70;99.90;;;;;;5092356;28;20919;-70
2023/05/25 13:37:31;;;;;;;21.85;4.85;;;;;;;;;;5092541;28;20032;-70
2023/05/25 13:39:57;;;;;;;24.25;4.85;;;;;;;;;;5092424;28;20047;-70
2023/05/25 13:42:23;;;;;;;22.50;4.10;;;17.90;99.90;;;;;;5076153;28;20400;-70
2023/05/25 13:44:49;;;;;;;25.20;5.05;;;18.00;99.90;;;;;;5091423;28;20040;-69
2023/05/25 13:47:15;;;;;;;22.70;5.22;;;;;;;;;;5126798;27;20046;-70
2023/05/25 13:49:41;;;;;;;29.65;5.10;;;;;;;;;;5092330;28;20129;-73
2023/05/25 13:52:08;;;;;;;30.02;5.53;;;;;;;;;;5075503;28;20379;-70
2023/05/25 13:54:34;;;;;;;27.70;5.32;;;;;;;;;;5092883;28;20477;-73
2023/05/25 13:57:00;;;;;;;23.63;4.95;;;;;;;;;;5091140;28;20036;-70
2023/05/25 13:59:26;;;;;;;24.48;5.25;;;;;;;;;;5092298;28;20038;-70